sensor_id;sensor_type;location;lat;lon;timestamp;P1;durP1;ratioP1;P2;durP2;ratioP2
29362;SDS011;16349;53.672;10.014;2022-10-16T00:01:32;8.17;;;5.63;;
29362;SDS011;16349;53.672;10.014;2022-10-16T00:03:59;7.10;;;6.37;;
29362;SDS011;16349;53.672;10.014;2022-10-16T00:06:29;6.50;;;5.60;;
29362;SDS011;16349;53.672;10.014;2022-10-16T00:08:57;8.77;;;5.53;;
29362;SDS011;16349;53.672;10.014;2022-10-16T00:11:25;7.37;;;6.00;;
29362;SDS011;16349;53.672;10.014;2022-10-16T00:13:54;7.23;;;5.80;;
29362;SDS011;16349;53.672;10.014;2022-10-16T00:16:23;5.90;;;5.40;;
29362;SDS011;16349;53.672;10.014;2022-10-16T00:18:51;8.23;;;5.97;;
29362;SDS011;16349;53.672;10.014;2022-10-16T00:21:18;5.67;;;5.17;;
29362;SDS011;16349;53.672;10.014;2022-10-16T00:23:46;6.23;;;5.63;;
29362;SDS011;16349;53.672;10.014;2022-10-16T00:26:18;8.50;;;5.47;;
29362;SDS011;16349;53.672;10.014;2022-10-16T00:28:46;5.80;;;5.23;;
29362;SDS011;16349;53.672;10.014;2022-10-16T00:31:13;7.23;;;5.77;;
29362;SDS011;16349;53.672;10.014;2022-10-16T00:33:40;6.47;;;4.60;;
29362;SDS011;16349;53.672;10.014;2022-10-16T00:36:08;5.37;;;4.70;;
29362;SDS011;16349;53.672;10.014;2022-10-16T00:38:37;5.37;;;4.53;;
29362;SDS011;16349;53.672;10.014;2022-10-16T00:41:03;5.67;;;4.47;;
29362;SDS011;16349;53.672;10.014;2022-10-16T00:43:36;5.30;;;4.20;;
29362;SDS011;16349;53.672;10.014;2022-10-16T00:46:08;5.47;;;4.07;;
29362;SDS011;16349;53.672;10.014;2022-10-16T00:48:39;3.20;;;3.00;;
29362;SDS011;16349;53.672;10.014;2022-10-16T00:51:06;3.93;;;3.27;;
29362;SDS011;16349;53.672;10.014;2022-10-16T00:53:34;3.57;;;2.97;;
29362;SDS011;16349;53.672;10.014;2022-10-16T00:56:01;4.80;;;3.07;;
29362;SDS011;16349;53.672;10.014;2022-10-16T00:58:28;5.27;;;3.00;;
29362;SDS011;16349;53.672;10.014;2022-10-16T01:00:56;2.63;;;2.00;;
29362;SDS011;16349;53.672;10.014;2022-10-16T01:03:25;6.10;;;2.73;;
29362;SDS011;16349;53.672;10.014;2022-10-16T01:05:57;5.83;;;2.83;;
29362;SDS011;16349;53.672;10.014;2022-10-16T01:08:37;4.00;;;2.70;;
29362;SDS011;16349;53.672;10.014;2022-10-16T01:11:11;5.30;;;2.60;;
29362;SDS011;16349;53.672;10.014;2022-10-16T01:13:44;6.40;;;2.30;;
29362;SDS011;16349;53.672;10.014;2022-10-16T01:16:17;2.83;;;2.40;;
29362;SDS011;16349;53.672;10.014;2022-10-16T01:18:51;5.77;;;2.03;;
29362;SDS011;16349;53.672;10.014;2022-10-16T01:21:24;2.90;;;2.20;;
29362;SDS011;16349;53.672;10.014;2022-10-16T01:23:56;3.47;;;2.33;;
29362;SDS011;16349;53.672;10.014;2022-10-16T01:26:31;2.23;;;1.87;;
29362;SDS011;16349;53.672;10.014;2022-10-16T01:29:09;5.27;;;1.90;;
29362;SDS011;16349;53.672;10.014;2022-10-16T01:31:41;2.00;;;1.90;;
29362;SDS011;16349;53.672;10.014;2022-10-16T01:34:14;2.20;;;2.00;;
29362;SDS011;16349;53.672;10.014;2022-10-16T01:36:45;3.57;;;2.03;;
29362;SDS011;16349;53.672;10.014;2022-10-16T01:39:15;4.63;;;2.23;;
29362;SDS011;16349;53.672;10.014;2022-10-16T01:41:47;2.70;;;1.90;;
29362;SDS011;16349;53.672;10.014;2022-10-16T01:44:21;3.70;;;1.73;;
29362;SDS011;16349;53.672;10.014;2022-10-16T01:46:50;3.53;;;2.00;;
29362;SDS011;16349;53.672;10.014;2022-10-16T01:49:18;3.07;;;1.53;;
29362;SDS011;16349;53.672;10.014;2022-10-16T01:51:48;1.70;;;1.60;;
29362;SDS011;16349;53.672;10.014;2022-10-16T01:54:18;2.77;;;1.90;;
29362;SDS011;16349;53.672;10.014;2022-10-16T01:56:46;5.30;;;2.13;;
29362;SDS011;16349;53.672;10.014;2022-10-16T01:59:15;3.20;;;2.00;;
29362;SDS011;16349;53.672;10.014;2022-10-16T02:01:47;1.60;;;1.50;;
29362;SDS011;16349;53.672;10.014;2022-10-16T02:04:17;3.97;;;1.87;;
29362;SDS011;16349;53.672;10.014;2022-10-16T02:06:47;1.97;;;1.20;;
29362;SDS011;16349;53.672;10.014;2022-10-16T02:09:14;1.97;;;1.73;;
29362;SDS011;16349;53.672;10.014;2022-10-16T02:11:42;3.80;;;1.60;;
29362;SDS011;16349;53.672;10.014;2022-10-16T02:14:09;20.47;;;1.90;;
29362;SDS011;16349;53.672;10.014;2022-10-16T02:16:37;3.23;;;1.70;;
29362;SDS011;16349;53.672;10.014;2022-10-16T02:19:06;3.37;;;1.63;;
29362;SDS011;16349;53.672;10.014;2022-10-16T02:21:36;2.90;;;1.60;;
29362;SDS011;16349;53.672;10.014;2022-10-16T02:24:08;3.77;;;1.60;;
29362;SDS011;16349;53.672;10.014;2022-10-16T02:26:42;3.93;;;1.90;;
29362;SDS011;16349;53.672;10.014;2022-10-16T02:29:12;2.00;;;1.30;;
29362;SDS011;16349;53.672;10.014;2022-10-16T02:31:43;3.87;;;1.77;;
29362;SDS011;16349;53.672;10.014;2022-10-16T02:34:15;3.47;;;1.40;;
29362;SDS011;16349;53.672;10.014;2022-10-16T02:36:44;2.10;;;1.40;;
29362;SDS011;16349;53.672;10.014;2022-10-16T02:39:12;3.83;;;1.57;;
29362;SDS011;16349;53.672;10.014;2022-10-16T02:41:39;2.33;;;1.37;;
29362;SDS011;16349;53.672;10.014;2022-10-16T02:44:06;3.07;;;1.40;;
29362;SDS011;16349;53.672;10.014;2022-10-16T02:46:32;2.37;;;1.40;;
29362;SDS011;16349;53.672;10.014;2022-10-16T02:48:59;2.83;;;1.53;;
29362;SDS011;16349;53.672;10.014;2022-10-16T02:51:27;2.47;;;1.33;;
29362;SDS011;16349;53.672;10.014;2022-10-16T02:53:54;4.47;;;1.10;;
29362;SDS011;16349;53.672;10.014;2022-10-16T02:56:21;1.70;;;1.20;;
29362;SDS011;16349;53.672;10.014;2022-10-16T02:58:49;1.30;;;0.90;;
29362;SDS011;16349;53.672;10.014;2022-10-16T03:01:15;1.67;;;1.47;;
29362;SDS011;16349;53.672;10.014;2022-10-16T03:03:42;2.83;;;1.50;;
29362;SDS011;16349;53.672;10.014;2022-10-16T03:06:09;1.87;;;1.30;;
29362;SDS011;16349;53.672;10.014;2022-10-16T03:08:37;1.20;;;1.10;;
29362;SDS011;16349;53.672;10.014;2022-10-16T03:11:04;2.27;;;1.10;;
29362;SDS011;16349;53.672;10.014;2022-10-16T03:13:31;4.17;;;1.40;;
29362;SDS011;16349;53.672;10.014;2022-10-16T03:15:57;3.57;;;1.50;;
29362;SDS011;16349;53.672;10.014;2022-10-16T03:18:24;3.60;;;1.10;;
29362;SDS011;16349;53.672;10.014;2022-10-16T03:20:50;1.70;;;1.23;;
29362;SDS011;16349;53.672;10.014;2022-10-16T03:23:17;1.80;;;1.57;;
29362;SDS011;16349;53.672;10.014;2022-10-16T03:25:45;1.73;;;1.33;;
29362;SDS011;16349;53.672;10.014;2022-10-16T03:28:12;2.17;;;1.40;;
29362;SDS011;16349;53.672;10.014;2022-10-16T03:30:38;2.27;;;1.13;;
29362;SDS011;16349;53.672;10.014;2022-10-16T03:33:05;4.57;;;1.33;;
29362;SDS011;16349;53.672;10.014;2022-10-16T03:35:32;1.87;;;1.27;;
29362;SDS011;16349;53.672;10.014;2022-10-16T03:37:59;2.50;;;1.37;;
29362;SDS011;16349;53.672;10.014;2022-10-16T03:40:26;1.83;;;1.20;;
29362;SDS011;16349;53.672;10.014;2022-10-16T03:42:54;2.37;;;1.10;;
29362;SDS011;16349;53.672;10.014;2022-10-16T03:45:22;4.30;;;1.30;;
29362;SDS011;16349;53.672;10.014;2022-10-16T03:47:49;1.90;;;1.20;;
29362;SDS011;16349;53.672;10.014;2022-10-16T03:50:16;2.73;;;1.30;;
29362;SDS011;16349;53.672;10.014;2022-10-16T03:52:43;3.17;;;1.60;;
29362;SDS011;16349;53.672;10.014;2022-10-16T03:55:09;2.73;;;1.23;;
29362;SDS011;16349;53.672;10.014;2022-10-16T03:57:37;5.37;;;1.80;;
29362;SDS011;16349;53.672;10.014;2022-10-16T04:00:06;4.30;;;1.20;;
29362;SDS011;16349;53.672;10.014;2022-10-16T04:02:37;2.50;;;1.50;;
29362;SDS011;16349;53.672;10.014;2022-10-16T04:05:04;1.80;;;1.07;;
29362;SDS011;16349;53.672;10.014;2022-10-16T04:07:31;3.63;;;1.17;;
29362;SDS011;16349;53.672;10.014;2022-10-16T04:09:57;4.47;;;1.10;;
29362;SDS011;16349;53.672;10.014;2022-10-16T04:12:24;1.53;;;1.10;;
29362;SDS011;16349;53.672;10.014;2022-10-16T04:14:52;3.93;;;1.63;;
29362;SDS011;16349;53.672;10.014;2022-10-16T04:17:20;1.67;;;1.50;;
29362;SDS011;16349;53.672;10.014;2022-10-16T04:19:47;2.20;;;1.53;;
29362;SDS011;16349;53.672;10.014;2022-10-16T04:22:14;4.87;;;1.73;;
29362;SDS011;16349;53.672;10.014;2022-10-16T04:24:41;1.90;;;0.90;;
29362;SDS011;16349;53.672;10.014;2022-10-16T04:27:08;3.20;;;1.07;;
29362;SDS011;16349;53.672;10.014;2022-10-16T04:29:35;5.97;;;1.13;;
29362;SDS011;16349;53.672;10.014;2022-10-16T04:32:02;1.40;;;1.00;;
29362;SDS011;16349;53.672;10.014;2022-10-16T04:34:30;2.93;;;1.00;;
29362;SDS011;16349;53.672;10.014;2022-10-16T04:36:57;2.40;;;1.40;;
29362;SDS011;16349;53.672;10.014;2022-10-16T04:39:24;1.70;;;1.00;;
29362;SDS011;16349;53.672;10.014;2022-10-16T04:41:51;1.00;;;0.90;;
29362;SDS011;16349;53.672;10.014;2022-10-16T04:44:18;1.20;;;0.90;;
29362;SDS011;16349;53.672;10.014;2022-10-16T04:46:45;0.90;;;0.90;;
29362;SDS011;16349;53.672;10.014;2022-10-16T04:49:12;5.07;;;1.17;;
29362;SDS011;16349;53.672;10.014;2022-10-16T04:51:41;1.60;;;1.50;;
29362;SDS011;16349;53.672;10.014;2022-10-16T04:54:08;2.00;;;1.20;;
29362;SDS011;16349;53.672;10.014;2022-10-16T04:56:35;2.23;;;1.20;;
29362;SDS011;16349;53.672;10.014;2022-10-16T04:59:08;3.73;;;1.30;;
29362;SDS011;16349;53.672;10.014;2022-10-16T05:01:35;3.27;;;1.10;;
29362;SDS011;16349;53.672;10.014;2022-10-16T05:04:02;1.67;;;1.37;;
29362;SDS011;16349;53.672;10.014;2022-10-16T05:06:29;3.03;;;1.80;;
29362;SDS011;16349;53.672;10.014;2022-10-16T05:08:58;3.23;;;1.20;;
29362;SDS011;16349;53.672;10.014;2022-10-16T05:11:25;3.80;;;1.20;;
29362;SDS011;16349;53.672;10.014;2022-10-16T05:13:52;3.67;;;1.37;;
29362;SDS011;16349;53.672;10.014;2022-10-16T05:16:18;3.97;;;1.60;;
29362;SDS011;16349;53.672;10.014;2022-10-16T05:18:45;4.70;;;1.50;;
29362;SDS011;16349;53.672;10.014;2022-10-16T05:21:12;4.97;;;1.60;;
29362;SDS011;16349;53.672;10.014;2022-10-16T05:23:39;3.83;;;1.63;;
29362;SDS011;16349;53.672;10.014;2022-10-16T05:26:08;2.97;;;1.60;;
29362;SDS011;16349;53.672;10.014;2022-10-16T05:28:35;2.73;;;1.50;;
29362;SDS011;16349;53.672;10.014;2022-10-16T05:31:04;2.87;;;1.70;;
29362;SDS011;16349;53.672;10.014;2022-10-16T05:33:32;3.83;;;1.77;;
29362;SDS011;16349;53.672;10.014;2022-10-16T05:36:00;3.70;;;1.83;;
29362;SDS011;16349;53.672;10.014;2022-10-16T05:38:28;3.90;;;1.80;;
29362;SDS011;16349;53.672;10.014;2022-10-16T05:40:55;3.13;;;1.70;;
29362;SDS011;16349;53.672;10.014;2022-10-16T05:43:24;5.97;;;2.30;;
29362;SDS011;16349;53.672;10.014;2022-10-16T05:45:54;2.83;;;2.40;;
29362;SDS011;16349;53.672;10.014;2022-10-16T05:48:21;3.30;;;2.20;;
29362;SDS011;16349;53.672;10.014;2022-10-16T05:50:48;2.97;;;2.40;;
29362;SDS011;16349;53.672;10.014;2022-10-16T05:53:23;3.30;;;2.40;;
29362;SDS011;16349;53.672;10.014;2022-10-16T05:55:51;2.03;;;1.83;;
29362;SDS011;16349;53.672;10.014;2022-10-16T05:58:18;5.90;;;2.33;;
29362;SDS011;16349;53.672;10.014;2022-10-16T06:00:53;5.67;;;2.37;;
29362;SDS011;16349;53.672;10.014;2022-10-16T06:03:20;3.67;;;2.10;;
29362;SDS011;16349;53.672;10.014;2022-10-16T06:05:47;3.80;;;2.20;;
29362;SDS011;16349;53.672;10.014;2022-10-16T06:08:14;3.37;;;2.27;;
29362;SDS011;16349;53.672;10.014;2022-10-16T06:10:41;3.17;;;2.13;;
29362;SDS011;16349;53.672;10.014;2022-10-16T06:13:08;5.63;;;2.20;;
29362;SDS011;16349;53.672;10.014;2022-10-16T06:15:37;2.17;;;1.90;;
29362;SDS011;16349;53.672;10.014;2022-10-16T06:18:05;3.83;;;1.80;;
29362;SDS011;16349;53.672;10.014;2022-10-16T06:20:32;3.60;;;1.57;;
29362;SDS011;16349;53.672;10.014;2022-10-16T06:22:59;4.93;;;1.70;;
29362;SDS011;16349;53.672;10.014;2022-10-16T06:25:26;3.67;;;2.17;;
29362;SDS011;16349;53.672;10.014;2022-10-16T06:27:53;2.37;;;1.87;;
29362;SDS011;16349;53.672;10.014;2022-10-16T06:30:20;3.07;;;2.00;;
29362;SDS011;16349;53.672;10.014;2022-10-16T06:32:46;4.77;;;1.50;;
29362;SDS011;16349;53.672;10.014;2022-10-16T06:35:15;3.20;;;1.60;;
29362;SDS011;16349;53.672;10.014;2022-10-16T06:37:42;3.50;;;1.70;;
29362;SDS011;16349;53.672;10.014;2022-10-16T06:40:09;4.63;;;1.90;;
29362;SDS011;16349;53.672;10.014;2022-10-16T06:42:36;3.77;;;1.87;;
29362;SDS011;16349;53.672;10.014;2022-10-16T06:45:03;5.00;;;1.80;;
29362;SDS011;16349;53.672;10.014;2022-10-16T06:47:30;4.00;;;1.83;;
29362;SDS011;16349;53.672;10.014;2022-10-16T06:49:58;3.67;;;1.60;;
29362;SDS011;16349;53.672;10.014;2022-10-16T06:52:26;3.47;;;1.70;;
29362;SDS011;16349;53.672;10.014;2022-10-16T06:54:54;3.27;;;1.70;;
29362;SDS011;16349;53.672;10.014;2022-10-16T06:57:21;1.90;;;1.60;;
29362;SDS011;16349;53.672;10.014;2022-10-16T06:59:48;2.83;;;1.90;;
29362;SDS011;16349;53.672;10.014;2022-10-16T07:02:14;2.27;;;1.80;;
29362;SDS011;16349;53.672;10.014;2022-10-16T07:04:41;3.90;;;1.50;;
29362;SDS011;16349;53.672;10.014;2022-10-16T07:07:08;5.47;;;2.00;;
29362;SDS011;16349;53.672;10.014;2022-10-16T07:09:36;3.50;;;1.97;;
29362;SDS011;16349;53.672;10.014;2022-10-16T07:12:04;6.37;;;1.70;;
29362;SDS011;16349;53.672;10.014;2022-10-16T07:14:30;4.17;;;1.87;;
29362;SDS011;16349;53.672;10.014;2022-10-16T07:16:57;4.20;;;2.20;;
29362;SDS011;16349;53.672;10.014;2022-10-16T07:19:24;3.67;;;2.30;;
29362;SDS011;16349;53.672;10.014;2022-10-16T07:21:51;3.03;;;2.03;;
29362;SDS011;16349;53.672;10.014;2022-10-16T07:24:18;2.57;;;2.37;;
29362;SDS011;16349;53.672;10.014;2022-10-16T07:26:46;5.70;;;1.90;;
29362;SDS011;16349;53.672;10.014;2022-10-16T07:29:14;5.43;;;2.27;;
29362;SDS011;16349;53.672;10.014;2022-10-16T07:31:42;2.50;;;2.17;;
29362;SDS011;16349;53.672;10.014;2022-10-16T07:34:11;4.13;;;2.20;;
29362;SDS011;16349;53.672;10.014;2022-10-16T07:36:38;3.33;;;1.73;;
29362;SDS011;16349;53.672;10.014;2022-10-16T07:39:06;4.10;;;2.00;;
29362;SDS011;16349;53.672;10.014;2022-10-16T07:41:33;2.17;;;1.97;;
29362;SDS011;16349;53.672;10.014;2022-10-16T07:44:03;3.20;;;2.43;;
29362;SDS011;16349;53.672;10.014;2022-10-16T07:46:31;4.47;;;2.27;;
29362;SDS011;16349;53.672;10.014;2022-10-16T07:48:59;7.10;;;2.47;;
29362;SDS011;16349;53.672;10.014;2022-10-16T07:51:25;5.90;;;2.33;;
29362;SDS011;16349;53.672;10.014;2022-10-16T07:53:52;3.27;;;2.97;;
29362;SDS011;16349;53.672;10.014;2022-10-16T07:56:20;3.60;;;2.40;;
29362;SDS011;16349;53.672;10.014;2022-10-16T07:58:48;2.50;;;2.30;;
29362;SDS011;16349;53.672;10.014;2022-10-16T08:01:17;3.97;;;2.93;;
29362;SDS011;16349;53.672;10.014;2022-10-16T08:03:45;5.73;;;2.37;;
29362;SDS011;16349;53.672;10.014;2022-10-16T08:06:13;2.27;;;2.00;;
29362;SDS011;16349;53.672;10.014;2022-10-16T08:08:41;3.77;;;1.97;;
29362;SDS011;16349;53.672;10.014;2022-10-16T08:11:08;3.17;;;2.40;;
29362;SDS011;16349;53.672;10.014;2022-10-16T08:13:35;2.50;;;2.30;;
29362;SDS011;16349;53.672;10.014;2022-10-16T08:16:02;2.50;;;2.30;;
29362;SDS011;16349;53.672;10.014;2022-10-16T08:18:34;3.77;;;2.63;;
29362;SDS011;16349;53.672;10.014;2022-10-16T08:21:02;2.30;;;2.10;;
29362;SDS011;16349;53.672;10.014;2022-10-16T08:23:29;3.67;;;2.20;;
29362;SDS011;16349;53.672;10.014;2022-10-16T08:26:01;3.07;;;2.47;;
29362;SDS011;16349;53.672;10.014;2022-10-16T08:28:30;3.90;;;2.80;;
29362;SDS011;16349;53.672;10.014;2022-10-16T08:31:04;4.27;;;2.23;;
29362;SDS011;16349;53.672;10.014;2022-10-16T08:33:32;2.83;;;2.00;;
29362;SDS011;16349;53.672;10.014;2022-10-16T08:36:01;3.40;;;2.07;;
29362;SDS011;16349;53.672;10.014;2022-10-16T08:38:29;3.00;;;2.30;;
29362;SDS011;16349;53.672;10.014;2022-10-16T08:40:57;4.67;;;2.53;;
29362;SDS011;16349;53.672;10.014;2022-10-16T08:43:41;4.03;;;2.47;;
29362;SDS011;16349;53.672;10.014;2022-10-16T08:46:24;4.30;;;2.40;;
29362;SDS011;16349;53.672;10.014;2022-10-16T08:49:05;2.70;;;2.43;;
29362;SDS011;16349;53.672;10.014;2022-10-16T08:51:39;2.50;;;2.00;;
29362;SDS011;16349;53.672;10.014;2022-10-16T08:54:21;3.57;;;2.20;;
29362;SDS011;16349;53.672;10.014;2022-10-16T08:56:54;3.40;;;2.20;;
29362;SDS011;16349;53.672;10.014;2022-10-16T08:59:22;2.53;;;2.30;;
29362;SDS011;16349;53.672;10.014;2022-10-16T09:01:50;2.97;;;2.10;;
29362;SDS011;16349;53.672;10.014;2022-10-16T09:04:26;2.60;;;2.33;;
29362;SDS011;16349;53.672;10.014;2022-10-16T09:07:11;2.67;;;2.00;;
29362;SDS011;16349;53.672;10.014;2022-10-16T09:09:47;2.67;;;2.20;;
29362;SDS011;16349;53.672;10.014;2022-10-16T09:12:24;4.10;;;2.20;;
29362;SDS011;16349;53.672;10.014;2022-10-16T09:14:58;3.23;;;2.07;;
29362;SDS011;16349;53.672;10.014;2022-10-16T09:17:37;2.90;;;1.93;;
29362;SDS011;16349;53.672;10.014;2022-10-16T09:20:14;4.60;;;1.73;;
29362;SDS011;16349;53.672;10.014;2022-10-16T09:22:48;2.23;;;1.43;;
29362;SDS011;16349;53.672;10.014;2022-10-16T09:25:20;2.50;;;1.57;;
29362;SDS011;16349;53.672;10.014;2022-10-16T09:27:48;2.87;;;1.50;;
29362;SDS011;16349;53.672;10.014;2022-10-16T09:30:19;4.77;;;1.20;;
29362;SDS011;16349;53.672;10.014;2022-10-16T09:32:49;4.80;;;2.00;;
29362;SDS011;16349;53.672;10.014;2022-10-16T09:35:19;2.97;;;1.50;;
29362;SDS011;16349;53.672;10.014;2022-10-16T09:37:51;2.53;;;1.10;;
29362;SDS011;16349;53.672;10.014;2022-10-16T09:40:24;3.53;;;1.47;;
29362;SDS011;16349;53.672;10.014;2022-10-16T09:42:53;2.20;;;1.20;;
29362;SDS011;16349;53.672;10.014;2022-10-16T09:45:24;4.10;;;1.47;;
29362;SDS011;16349;53.672;10.014;2022-10-16T09:47:51;5.40;;;1.50;;
29362;SDS011;16349;53.672;10.014;2022-10-16T09:50:22;6.90;;;1.20;;
29362;SDS011;16349;53.672;10.014;2022-10-16T09:53:03;2.37;;;1.40;;
29362;SDS011;16349;53.672;10.014;2022-10-16T09:55:31;1.57;;;1.10;;
29362;SDS011;16349;53.672;10.014;2022-10-16T09:57:57;1.53;;;1.07;;
29362;SDS011;16349;53.672;10.014;2022-10-16T10:00:24;3.13;;;1.10;;
29362;SDS011;16349;53.672;10.014;2022-10-16T10:02:52;1.43;;;1.20;;
29362;SDS011;16349;53.672;10.014;2022-10-16T10:05:21;3.13;;;1.37;;
29362;SDS011;16349;53.672;10.014;2022-10-16T10:07:53;1.40;;;1.20;;
29362;SDS011;16349;53.672;10.014;2022-10-16T10:10:24;1.67;;;1.00;;
29362;SDS011;16349;53.672;10.014;2022-10-16T10:12:52;4.87;;;1.30;;
29362;SDS011;16349;53.672;10.014;2022-10-16T10:15:20;3.63;;;1.20;;
29362;SDS011;16349;53.672;10.014;2022-10-16T10:17:50;5.40;;;1.73;;
29362;SDS011;16349;53.672;10.014;2022-10-16T10:20:22;3.50;;;1.00;;
29362;SDS011;16349;53.672;10.014;2022-10-16T10:22:51;0.83;;;0.83;;
29362;SDS011;16349;53.672;10.014;2022-10-16T10:28:19;4.20;;;1.10;;
29362;SDS011;16349;53.672;10.014;2022-10-16T10:30:56;2.53;;;1.37;;
29362;SDS011;16349;53.672;10.014;2022-10-16T10:33:29;3.77;;;1.10;;
29362;SDS011;16349;53.672;10.014;2022-10-16T10:36:06;2.53;;;0.93;;
29362;SDS011;16349;53.672;10.014;2022-10-16T10:38:42;2.67;;;1.07;;
29362;SDS011;16349;53.672;10.014;2022-10-16T10:41:24;5.00;;;1.27;;
29362;SDS011;16349;53.672;10.014;2022-10-16T10:44:07;4.03;;;1.20;;
29362;SDS011;16349;53.672;10.014;2022-10-16T10:46:45;2.80;;;1.03;;
29362;SDS011;16349;53.672;10.014;2022-10-16T10:52:13;4.50;;;1.30;;
29362;SDS011;16349;53.672;10.014;2022-10-16T10:55:02;0.93;;;0.73;;
29362;SDS011;16349;53.672;10.014;2022-10-16T10:57:46;2.27;;;1.00;;
29362;SDS011;16349;53.672;10.014;2022-10-16T11:00:39;1.77;;;0.83;;
29362;SDS011;16349;53.672;10.014;2022-10-16T11:03:16;3.80;;;1.00;;
29362;SDS011;16349;53.672;10.014;2022-10-16T11:05:54;2.80;;;0.70;;
29362;SDS011;16349;53.672;10.014;2022-10-16T11:08:26;2.07;;;0.80;;
29362;SDS011;16349;53.672;10.014;2022-10-16T11:11:01;1.93;;;0.80;;
29362;SDS011;16349;53.672;10.014;2022-10-16T11:13:33;0.90;;;0.63;;
29362;SDS011;16349;53.672;10.014;2022-10-16T11:16:06;2.97;;;0.77;;
29362;SDS011;16349;53.672;10.014;2022-10-16T11:18:44;1.40;;;0.60;;
29362;SDS011;16349;53.672;10.014;2022-10-16T11:21:16;3.43;;;0.80;;
29362;SDS011;16349;53.672;10.014;2022-10-16T11:23:48;1.83;;;1.00;;
29362;SDS011;16349;53.672;10.014;2022-10-16T11:26:21;3.80;;;1.00;;
29362;SDS011;16349;53.672;10.014;2022-10-16T11:28:52;3.77;;;1.30;;
29362;SDS011;16349;53.672;10.014;2022-10-16T11:31:23;3.03;;;0.90;;
29362;SDS011;16349;53.672;10.014;2022-10-16T11:33:59;3.73;;;0.97;;
29362;SDS011;16349;53.672;10.014;2022-10-16T11:36:32;4.20;;;0.97;;
29362;SDS011;16349;53.672;10.014;2022-10-16T11:39:04;2.30;;;1.00;;
29362;SDS011;16349;53.672;10.014;2022-10-16T11:41:45;2.10;;;0.80;;
29362;SDS011;16349;53.672;10.014;2022-10-16T11:44:22;1.37;;;0.60;;
29362;SDS011;16349;53.672;10.014;2022-10-16T11:47:01;5.00;;;0.70;;
29362;SDS011;16349;53.672;10.014;2022-10-16T11:49:38;2.20;;;0.53;;
29362;SDS011;16349;53.672;10.014;2022-10-16T11:52:07;2.63;;;0.77;;
29362;SDS011;16349;53.672;10.014;2022-10-16T11:54:45;3.43;;;0.90;;
29362;SDS011;16349;53.672;10.014;2022-10-16T11:57:16;1.93;;;0.50;;
29362;SDS011;16349;53.672;10.014;2022-10-16T11:59:48;1.50;;;0.50;;
29362;SDS011;16349;53.672;10.014;2022-10-16T12:02:28;3.20;;;0.80;;
29362;SDS011;16349;53.672;10.014;2022-10-16T12:05:07;1.33;;;0.60;;
29362;SDS011;16349;53.672;10.014;2022-10-16T12:07:47;1.80;;;0.77;;
29362;SDS011;16349;53.672;10.014;2022-10-16T12:10:21;5.07;;;0.87;;
29362;SDS011;16349;53.672;10.014;2022-10-16T12:12:49;3.70;;;0.90;;
29362;SDS011;16349;53.672;10.014;2022-10-16T12:15:23;2.10;;;0.97;;
29362;SDS011;16349;53.672;10.014;2022-10-16T12:17:52;3.23;;;0.70;;
29362;SDS011;16349;53.672;10.014;2022-10-16T12:20:23;1.93;;;0.70;;
29362;SDS011;16349;53.672;10.014;2022-10-16T12:22:53;3.20;;;0.80;;
29362;SDS011;16349;53.672;10.014;2022-10-16T12:25:22;1.93;;;0.70;;
29362;SDS011;16349;53.672;10.014;2022-10-16T12:27:57;2.90;;;0.70;;
29362;SDS011;16349;53.672;10.014;2022-10-16T12:30:28;4.30;;;1.10;;
29362;SDS011;16349;53.672;10.014;2022-10-16T12:32:58;2.93;;;0.70;;
29362;SDS011;16349;53.672;10.014;2022-10-16T12:35:28;2.67;;;1.03;;
29362;SDS011;16349;53.672;10.014;2022-10-16T12:38:04;2.13;;;0.80;;
29362;SDS011;16349;53.672;10.014;2022-10-16T12:40:34;2.47;;;0.70;;
29362;SDS011;16349;53.672;10.014;2022-10-16T12:43:13;1.63;;;0.90;;
29362;SDS011;16349;53.672;10.014;2022-10-16T12:46:00;5.20;;;0.83;;
29362;SDS011;16349;53.672;10.014;2022-10-16T12:48:29;3.63;;;1.03;;
29362;SDS011;16349;53.672;10.014;2022-10-16T12:50:56;4.27;;;0.80;;
29362;SDS011;16349;53.672;10.014;2022-10-16T12:53:24;2.30;;;0.70;;
29362;SDS011;16349;53.672;10.014;2022-10-16T12:55:58;4.47;;;0.90;;
29362;SDS011;16349;53.672;10.014;2022-10-16T12:58:40;3.57;;;0.80;;
29362;SDS011;16349;53.672;10.014;2022-10-16T13:01:20;2.90;;;0.87;;
29362;SDS011;16349;53.672;10.014;2022-10-16T13:03:59;3.73;;;0.80;;
29362;SDS011;16349;53.672;10.014;2022-10-16T13:06:41;2.07;;;0.87;;
29362;SDS011;16349;53.672;10.014;2022-10-16T13:09:26;1.40;;;1.10;;
29362;SDS011;16349;53.672;10.014;2022-10-16T13:12:06;1.90;;;1.00;;
29362;SDS011;16349;53.672;10.014;2022-10-16T13:15:01;2.40;;;1.03;;
29362;SDS011;16349;53.672;10.014;2022-10-16T13:17:48;3.20;;;0.70;;
29362;SDS011;16349;53.672;10.014;2022-10-16T13:20:22;3.43;;;0.67;;
29362;SDS011;16349;53.672;10.014;2022-10-16T13:22:59;2.07;;;1.10;;
29362;SDS011;16349;53.672;10.014;2022-10-16T13:25:35;3.43;;;1.07;;
29362;SDS011;16349;53.672;10.014;2022-10-16T13:28:10;6.03;;;1.30;;
29362;SDS011;16349;53.672;10.014;2022-10-16T13:30:39;4.40;;;0.90;;
29362;SDS011;16349;53.672;10.014;2022-10-16T13:33:12;4.13;;;0.67;;
29362;SDS011;16349;53.672;10.014;2022-10-16T13:35:46;6.10;;;0.97;;
29362;SDS011;16349;53.672;10.014;2022-10-16T13:38:16;1.97;;;0.60;;
29362;SDS011;16349;53.672;10.014;2022-10-16T13:40:51;6.40;;;0.90;;
29362;SDS011;16349;53.672;10.014;2022-10-16T13:43:21;3.60;;;1.00;;
29362;SDS011;16349;53.672;10.014;2022-10-16T13:45:54;3.47;;;0.60;;
29362;SDS011;16349;53.672;10.014;2022-10-16T13:48:23;4.53;;;0.80;;
29362;SDS011;16349;53.672;10.014;2022-10-16T13:51:00;1.37;;;0.80;;
29362;SDS011;16349;53.672;10.014;2022-10-16T13:53:29;1.50;;;0.70;;
29362;SDS011;16349;53.672;10.014;2022-10-16T13:55:57;2.93;;;1.10;;
29362;SDS011;16349;53.672;10.014;2022-10-16T13:58:25;6.57;;;0.83;;
29362;SDS011;16349;53.672;10.014;2022-10-16T14:00:53;4.97;;;1.00;;
29362;SDS011;16349;53.672;10.014;2022-10-16T14:03:21;1.90;;;0.93;;
29362;SDS011;16349;53.672;10.014;2022-10-16T14:05:51;3.57;;;0.87;;
29362;SDS011;16349;53.672;10.014;2022-10-16T14:08:19;2.57;;;0.80;;
29362;SDS011;16349;53.672;10.014;2022-10-16T14:10:47;5.47;;;0.97;;
29362;SDS011;16349;53.672;10.014;2022-10-16T14:13:17;2.17;;;1.00;;
29362;SDS011;16349;53.672;10.014;2022-10-16T14:15:46;2.37;;;0.57;;
29362;SDS011;16349;53.672;10.014;2022-10-16T14:18:17;3.87;;;1.07;;
29362;SDS011;16349;53.672;10.014;2022-10-16T14:20:48;2.43;;;0.87;;
29362;SDS011;16349;53.672;10.014;2022-10-16T14:23:19;1.60;;;0.83;;
29362;SDS011;16349;53.672;10.014;2022-10-16T14:25:48;2.63;;;0.93;;
29362;SDS011;16349;53.672;10.014;2022-10-16T14:28:16;3.07;;;1.13;;
29362;SDS011;16349;53.672;10.014;2022-10-16T14:30:53;2.70;;;0.93;;
29362;SDS011;16349;53.672;10.014;2022-10-16T14:33:22;5.13;;;1.10;;
29362;SDS011;16349;53.672;10.014;2022-10-16T14:36:03;3.83;;;0.90;;
29362;SDS011;16349;53.672;10.014;2022-10-16T14:38:31;1.37;;;0.93;;
29362;SDS011;16349;53.672;10.014;2022-10-16T14:40:59;5.97;;;0.90;;
29362;SDS011;16349;53.672;10.014;2022-10-16T14:43:31;3.97;;;2.30;;
29362;SDS011;16349;53.672;10.014;2022-10-16T14:46:00;1.83;;;1.00;;
29362;SDS011;16349;53.672;10.014;2022-10-16T14:48:29;2.93;;;0.80;;
29362;SDS011;16349;53.672;10.014;2022-10-16T14:50:56;30.07;;;23.90;;
29362;SDS011;16349;53.672;10.014;2022-10-16T14:53:24;25.23;;;18.67;;
29362;SDS011;16349;53.672;10.014;2022-10-16T14:55:51;33.20;;;19.93;;
29362;SDS011;16349;53.672;10.014;2022-10-16T14:58:19;10.23;;;5.83;;